Time;durP1;ratioP1;P1;durP2;ratioP2;P2;SDS_P1;SDS_P2;PMS_P1;PMS_P2;Temp;Humidity;BMP_temperature;BMP_pressure;BME280_temperature;BME280_humidity;BME280_pressure;Samples;Min_cycle;Max_cycle;Signal;HPM_P1;HPM_P2
2022/08/26 00:00:46;;;;;;;9.90;7.88;;;21.50;79.40;;;;;;5062581;28;20041;-47
2022/08/26 00:03:13;;;;;;;12.27;7.70;;;21.50;79.40;;;;;;5051945;28;20040;-47
2022/08/26 00:05:40;;;;;;;10.43;7.80;;;21.50;79.40;;;;;;5070309;28;20040;-49
2022/08/26 00:08:09;;;;;;;13.57;8.15;;;21.50;79.60;;;;;;5069160;28;20028;-46
2022/08/26 00:10:37;;;;;;;13.48;8.85;;;21.50;79.90;;;;;;5065760;28;20099;-46
2022/08/26 00:13:06;;;;;;;10.52;8.13;;;21.50;79.60;;;;;;5054503;28;20047;-46
2022/08/26 00:15:34;;;;;;;11.30;8.23;;;21.50;79.60;;;;;;5057725;28;20063;-46
2022/08/26 00:18:00;;;;;;;11.43;7.80;;;21.50;79.90;;;;;;5036050;28;20020;-46
2022/08/26 00:20:28;;;;;;;11.35;8.30;;;21.50;79.80;;;;;;5062294;28;20041;-47
2022/08/26 00:22:54;;;;;;;15.25;8.85;;;21.50;79.90;;;;;;5066022;28;20024;-47
2022/08/26 00:25:22;;;;;;;17.67;9.60;;;21.40;80.00;;;;;;5067049;28;20166;-47
2022/08/26 00:27:48;;;;;;;9.73;8.75;;;21.50;80.00;;;;;;5061303;28;20104;-46
2022/08/26 00:30:18;;;;;;;12.45;8.10;;;21.50;80.10;;;;;;5050097;28;20060;-47
2022/08/26 00:32:44;;;;;;;11.57;8.82;;;21.40;80.20;;;;;;5042074;28;20028;-49
2022/08/26 00:35:11;;;;;;;10.27;9.20;;;21.40;80.40;;;;;;5062403;28;20037;-46
2022/08/26 00:37:38;;;;;;;12.48;8.18;;;21.40;80.60;;;;;;5034659;28;20027;-46
2022/08/26 00:40:06;;;;;;;16.33;9.15;;;21.40;80.50;;;;;;5016167;28;20040;-49
2022/08/26 00:42:32;;;;;;;11.87;9.60;;;21.40;80.60;;;;;;5042473;28;20446;-46
2022/08/26 00:44:58;;;;;;;11.15;8.40;;;21.40;80.70;;;;;;5034240;28;20035;-46
2022/08/26 00:47:35;;;;;;;11.35;8.18;;;21.30;80.70;;;;;;5052933;28;20486;-47
2022/08/26 00:50:06;;;;;;;13.95;8.40;;;21.30;80.70;;;;;;5049827;28;20048;-47
2022/08/26 00:52:31;;;;;;;11.23;8.95;;;21.30;80.90;;;;;;5053631;28;20509;-48
2022/08/26 00:55:20;;;;;;;13.48;9.80;;;21.30;81.00;;;;;;5069823;28;20043;-47
2022/08/26 00:57:51;;;;;;;9.70;8.70;;;21.20;81.10;;;;;;5062542;28;20036;-47
2022/08/26 01:00:22;;;;;;;11.98;9.50;;;21.10;81.40;;;;;;5064940;28;20028;-47
2022/08/26 01:02:52;;;;;;;9.27;8.38;;;21.10;81.60;;;;;;5053401;28;20025;-47
2022/08/26 01:05:18;;;;;;;11.27;9.55;;;21.10;81.60;;;;;;5065852;28;20032;-46
2022/08/26 01:07:44;;;;;;;12.35;8.98;;;21.00;81.80;;;;;;5058720;28;20447;-49
2022/08/26 01:10:14;;;;;;;15.75;9.82;;;21.00;82.00;;;;;;5050126;28;20136;-46
2022/08/26 01:12:45;;;;;;;11.77;8.73;;;20.90;82.10;;;;;;5053030;28;20459;-46
2022/08/26 01:15:17;;;;;;;14.25;9.75;;;21.00;82.20;;;;;;5044447;28;20427;-47
2022/08/26 01:17:46;;;;;;;11.43;9.02;;;20.90;82.20;;;;;;5056074;28;20029;-46
2022/08/26 01:20:24;;;;;;;12.40;9.30;;;20.90;82.30;;;;;;5060220;28;20111;-46
2022/08/26 01:23:05;;;;;;;14.48;10.20;;;20.90;82.30;;;;;;5058791;28;20028;-46
2022/08/26 01:25:33;;;;;;;14.30;10.90;;;20.90;82.40;;;;;;5045272;28;20051;-46
2022/08/26 01:28:02;;;;;;;12.20;9.50;;;20.90;82.50;;;;;;5031557;28;20032;-46
2022/08/26 01:30:30;;;;;;;10.75;8.98;;;20.90;82.50;;;;;;5034748;28;20641;-48
2022/08/26 01:33:01;;;;;;;12.57;10.48;;;20.90;82.50;;;;;;5063663;28;20090;-47
2022/08/26 01:35:28;;;;;;;12.43;11.10;;;20.90;82.50;;;;;;5064067;28;20148;-47
2022/08/26 01:37:55;;;;;;;15.18;10.65;;;20.90;82.50;;;;;;5057562;28;20075;-48
2022/08/26 01:40:26;;;;;;;17.73;10.77;;;20.90;82.50;;;;;;5058837;28;20036;-47
2022/08/26 01:42:55;;;;;;;12.82;10.88;;;20.90;82.60;;;;;;5031151;28;20116;-46
2022/08/26 01:45:25;;;;;;;13.82;11.75;;;20.90;82.60;;;;;;5037810;28;20152;-47
2022/08/26 01:47:55;;;;;;;17.45;11.10;;;20.90;82.70;;;;;;5065365;28;20076;-46
2022/08/26 01:50:31;;;;;;;10.80;9.68;;;20.90;82.70;;;;;;5030402;28;20087;-46
2022/08/26 01:53:04;;;;;;;12.77;10.25;;;20.90;82.50;;;;;;5052438;28;20108;-46
2022/08/26 01:55:32;;;;;;;16.13;11.02;;;20.90;82.50;;;;;;5049092;28;20035;-48
2022/08/26 01:57:59;;;;;;;14.23;11.40;;;20.90;82.70;;;;;;5054863;28;20115;-46
2022/08/26 02:00:25;;;;;;;17.58;11.05;;;20.90;82.70;;;;;;5047148;28;20033;-46
2022/08/26 02:03:15;;;;;;;12.77;10.70;;;20.90;82.70;;;;;;5035362;28;20094;-46
2022/08/26 02:05:40;;;;;;;15.40;11.00;;;20.90;82.70;;;;;;5059496;28;20029;-47
2022/08/26 02:08:09;;;;;;;17.60;11.02;;;20.90;82.80;;;;;;5030975;28;20072;-46
2022/08/26 02:10:34;;;;;;;14.93;11.70;;;20.90;82.80;;;;;;5048693;28;20029;-47
2022/08/26 02:13:00;;;;;;;17.00;11.85;;;20.90;83.10;;;;;;5049044;28;20082;-46
2022/08/26 02:15:27;;;;;;;14.38;10.85;;;20.90;83.00;;;;;;5049834;28;20043;-46
2022/08/26 02:17:52;;;;;;;14.93;12.13;;;20.80;83.00;;;;;;5049366;28;20079;-46
2022/08/26 02:20:19;;;;;;;17.48;11.27;;;20.80;83.10;;;;;;5038357;28;20396;-46
2022/08/26 02:22:46;;;;;;;13.82;11.13;;;20.80;83.20;;;;;;5065981;28;20028;-46
2022/08/26 02:25:29;;;;;;;16.23;10.70;;;20.80;83.30;;;;;;5051159;28;20024;-48
2022/08/26 02:27:55;;;;;;;13.57;11.20;;;20.70;83.40;;;;;;5060239;28;20056;-46
2022/08/26 02:30:25;;;;;;;13.75;11.35;;;20.70;83.70;;;;;;5048763;28;20286;-46
2022/08/26 02:32:54;;;;;;;15.40;11.73;;;20.60;83.80;;;;;;5030663;28;20037;-46
2022/08/26 02:35:24;;;;;;;19.00;11.93;;;20.60;83.90;;;;;;5051389;28;20060;-46
2022/08/26 02:37:51;;;;;;;16.15;12.05;;;20.60;84.10;;;;;;5048328;28;20041;-48
2022/08/26 02:40:20;;;;;;;15.60;12.05;;;20.60;84.30;;;;;;5050541;28;20036;-46
2022/08/26 02:42:46;;;;;;;14.97;12.63;;;20.50;84.20;;;;;;5060867;28;20032;-46
2022/08/26 02:45:12;;;;;;;17.38;12.90;;;20.50;84.40;;;;;;5052269;28;20325;-46
2022/08/26 02:47:38;;;;;;;14.82;12.80;;;20.50;84.60;;;;;;5051788;28;20451;-48
2022/08/26 02:50:07;;;;;;;16.17;12.35;;;20.40;84.80;;;;;;5053180;28;20470;-47
2022/08/26 02:52:32;;;;;;;16.67;11.80;;;20.40;84.90;;;;;;5047951;28;20024;-47
2022/08/26 02:55:01;;;;;;;15.75;13.23;;;20.40;84.80;;;;;;5051935;28;21013;-49
2022/08/26 02:57:26;;;;;;;19.58;12.85;;;20.40;85.10;;;;;;5034596;28;20415;-46
2022/08/26 02:59:52;;;;;;;14.30;12.38;;;20.30;85.20;;;;;;5063146;28;20111;-47
2022/08/26 03:02:20;;;;;;;16.33;13.23;;;20.40;85.20;;;;;;5060618;28;20021;-46
2022/08/26 03:04:49;;;;;;;13.57;12.18;;;20.40;84.90;;;;;;5052617;28;20062;-48
2022/08/26 03:07:15;;;;;;;17.00;13.20;;;20.30;85.10;;;;;;5041039;28;20503;-46
2022/08/26 03:09:40;;;;;;;13.98;12.48;;;20.20;85.20;;;;;;5065742;28;20108;-47
2022/08/26 03:12:06;;;;;;;15.32;12.50;;;20.30;85.30;;;;;;5070126;28;20024;-47
2022/08/26 03:14:34;;;;;;;14.88;13.02;;;20.20;85.30;;;;;;5052048;28;20102;-47
2022/08/26 03:17:00;;;;;;;14.30;12.82;;;20.10;85.40;;;;;;5059644;28;20033;-51
2022/08/26 03:19:25;;;;;;;15.85;13.15;;;20.10;85.60;;;;;;5035688;28;20119;-46
2022/08/26 03:21:52;;;;;;;14.88;12.70;;;20.00;85.60;;;;;;5039245;28;20463;-46
2022/08/26 03:24:18;;;;;;;14.40;12.82;;;19.90;85.80;;;;;;5064644;28;20383;-47
2022/08/26 03:26:45;;;;;;;17.60;12.38;;;19.90;86.00;;;;;;5059887;28;20021;-46
2022/08/26 03:31:55;;;;;;;14.40;11.85;;;19.80;86.10;;;;;;5069237;28;20103;-47
2022/08/26 03:34:22;;;;;;;16.45;12.90;;;19.70;86.60;;;;;;5069556;28;20047;-46
2022/08/26 03:36:48;;;;;;;18.48;14.80;;;19.70;86.70;;;;;;5059981;28;20029;-47
2022/08/26 03:39:13;;;;;;;15.45;13.85;;;19.70;86.60;;;;;;5059736;28;20108;-46
2022/08/26 03:41:40;;;;;;;14.82;13.25;;;19.60;86.90;;;;;;5071377;28;20024;-46
2022/08/26 03:44:09;;;;;;;18.33;14.65;;;19.60;87.00;;;;;;5055538;28;20464;-47
2022/08/26 03:46:36;;;;;;;17.80;14.40;;;19.60;87.10;;;;;;5063510;28;20044;-47
2022/08/26 03:49:04;;;;;;;19.00;15.18;;;19.60;87.10;;;;;;5051230;28;20460;-47
2022/08/26 03:51:33;;;;;;;19.58;14.18;;;19.50;87.30;;;;;;5037551;28;20043;-47
2022/08/26 03:54:01;;;;;;;15.63;13.98;;;19.60;87.30;;;;;;5055349;28;20047;-46
2022/08/26 03:56:28;;;;;;;19.02;15.65;;;19.50;87.40;;;;;;5064859;28;20050;-47
2022/08/26 03:58:56;;;;;;;17.92;14.88;;;19.50;87.60;;;;;;5051541;28;20033;-46
2022/08/26 04:01:22;;;;;;;20.25;14.95;;;19.50;87.60;;;;;;5041761;28;20064;-49
2022/08/26 04:03:56;;;;;;;16.05;13.38;;;19.40;87.60;;;;;;5064996;28;20116;-46
2022/08/26 04:06:29;;;;;;;16.30;14.05;;;19.40;87.70;;;;;;5049534;28;20028;-47
2022/08/26 04:08:58;;;;;;;16.67;14.95;;;19.40;87.80;;;;;;5067220;28;20017;-48
2022/08/26 04:11:30;;;;;;;17.98;13.95;;;19.40;87.80;;;;;;5066814;28;20012;-48
2022/08/26 04:13:58;;;;;;;17.15;15.35;;;19.40;87.80;;;;;;5069727;28;20462;-48
2022/08/26 04:16:27;;;;;;;17.58;14.20;;;19.40;87.80;;;;;;5064812;28;20025;-46
2022/08/26 04:18:55;;;;;;;18.75;14.50;;;19.30;87.90;;;;;;5059033;28;20032;-47
2022/08/26 04:21:21;;;;;;;18.65;15.55;;;19.30;88.10;;;;;;5067806;28;20334;-49
2022/08/26 04:23:49;;;;;;;17.13;15.35;;;19.30;88.10;;;;;;5045848;28;20023;-47
2022/08/26 04:26:17;;;;;;;20.20;16.58;;;19.20;88.10;;;;;;5070519;28;20104;-46
2022/08/26 04:28:42;;;;;;;22.40;15.73;;;19.20;88.10;;;;;;5067643;28;20450;-48
2022/08/26 04:31:13;;;;;;;20.13;16.52;;;19.20;88.10;;;;;;5057174;28;20131;-48
2022/08/26 04:33:40;;;;;;;17.60;15.75;;;19.20;88.30;;;;;;5063826;28;20103;-48
2022/08/26 04:36:06;;;;;;;17.77;16.02;;;19.10;88.20;;;;;;5048493;28;20039;-46
2022/08/26 04:38:34;;;;;;;19.30;15.57;;;19.10;88.30;;;;;;5039219;28;20027;-49
2022/08/26 04:41:00;;;;;;;18.17;15.80;;;19.10;88.30;;;;;;5050044;28;20021;-49
2022/08/26 04:43:27;;;;;;;18.35;16.00;;;19.10;88.30;;;;;;5049657;28;20028;-48
2022/08/26 04:45:54;;;;;;;19.65;16.60;;;19.10;88.20;;;;;;5045446;28;20078;-47
2022/08/26 04:48:19;;;;;;;17.88;14.73;;;19.00;88.40;;;;;;5046742;28;20056;-47
2022/08/26 04:50:47;;;;;;;19.58;15.40;;;19.00;88.50;;;;;;5048944;28;20029;-46
2022/08/26 04:53:15;;;;;;;22.33;17.08;;;19.00;88.50;;;;;;5033388;28;20032;-48
2022/08/26 04:55:41;;;;;;;19.40;17.02;;;19.00;88.80;;;;;;5063602;28;20033;-46
2022/08/26 04:58:10;;;;;;;19.20;16.25;;;19.00;88.90;;;;;;5066025;28;20043;-46
2022/08/26 05:00:35;;;;;;;17.30;15.50;;;19.00;88.90;;;;;;5063837;28;20082;-48
2022/08/26 05:03:01;;;;;;;22.08;16.75;;;19.00;89.00;;;;;;5065693;28;20028;-46
2022/08/26 05:05:27;;;;;;;16.80;15.20;;;19.10;88.90;;;;;;5061134;28;20107;-49
2022/08/26 05:07:52;;;;;;;22.20;15.02;;;19.00;89.00;;;;;;5062144;28;20027;-49
2022/08/26 05:10:18;;;;;;;23.67;16.38;;;19.10;89.00;;;;;;5051103;28;20028;-46
2022/08/26 05:12:44;;;;;;;28.13;17.58;;;19.00;89.00;;;;;;5048577;28;20111;-46
2022/08/26 05:15:10;;;;;;;23.27;17.33;;;19.00;88.90;;;;;;5065949;28;20032;-46
2022/08/26 05:17:39;;;;;;;22.15;16.17;;;19.10;89.00;;;;;;5061817;28;20040;-47
2022/08/26 05:20:05;;;;;;;21.58;15.65;;;19.10;89.00;;;;;;5051508;28;20116;-48
2022/08/26 05:22:31;;;;;;;21.88;15.98;;;19.10;89.10;;;;;;5057919;28;20040;-49
2022/08/26 05:24:58;;;;;;;31.38;16.83;;;19.10;89.10;;;;;;5059246;28;20034;-46
2022/08/26 05:27:24;;;;;;;26.38;16.67;;;19.10;89.10;;;;;;5057172;28;20396;-47
2022/08/26 05:29:50;;;;;;;22.73;15.98;;;19.20;89.20;;;;;;5058571;28;20109;-49
2022/08/26 05:32:15;;;;;;;26.95;18.33;;;19.20;89.20;;;;;;5039344;28;20039;-48
2022/08/26 05:34:41;;;;;;;23.67;16.98;;;19.20;89.30;;;;;;5042162;28;20020;-47
2022/08/26 05:37:06;;;;;;;18.23;16.02;;;19.30;89.30;;;;;;5051563;28;20043;-49
2022/08/26 05:39:32;;;;;;;20.63;16.67;;;19.40;89.40;;;;;;5058349;28;20457;-48
2022/08/26 05:41:58;;;;;;;27.80;18.17;;;19.40;89.40;;;;;;5064172;28;20036;-46
2022/08/26 05:44:24;;;;;;;19.42;16.42;;;19.40;89.50;;;;;;5033989;28;20020;-47
2022/08/26 05:46:50;;;;;;;22.30;18.65;;;19.50;89.60;;;;;;5048949;28;20496;-46
2022/08/26 05:49:16;;;;;;;17.38;15.57;;;19.50;89.60;;;;;;5054313;28;20108;-46
2022/08/26 05:51:45;;;;;;;17.77;16.02;;;19.60;89.70;;;;;;5068829;28;20027;-46
2022/08/26 05:54:12;;;;;;;18.75;16.95;;;19.70;89.60;;;;;;5055169;28;20048;-46
2022/08/26 05:56:40;;;;;;;21.63;16.45;;;19.80;89.60;;;;;;5041087;28;20441;-47
2022/08/26 05:59:12;;;;;;;19.33;16.47;;;19.90;89.50;;;;;;5064053;28;20442;-45
2022/08/26 06:01:38;;;;;;;23.58;18.05;;;19.90;89.50;;;;;;5066752;28;20050;-47
2022/08/26 06:04:04;;;;;;;21.23;17.33;;;20.00;89.50;;;;;;5052552;28;20434;-46
2022/08/26 06:06:39;;;;;;;20.05;16.52;;;20.10;89.40;;;;;;5058779;28;20104;-48
2022/08/26 06:09:06;;;;;;;21.80;17.73;;;20.10;89.30;;;;;;5057835;28;20401;-46
2022/08/26 06:11:32;;;;;;;19.30;16.13;;;20.20;89.30;;;;;;5032755;28;20036;-50
2022/08/26 06:14:01;;;;;;;21.80;18.33;;;20.30;89.30;;;;;;5064000;28;20024;-48
2022/08/26 06:16:27;;;;;;;22.40;19.83;;;20.40;89.10;;;;;;5064242;28;20025;-48
2022/08/26 06:18:56;;;;;;;21.17;18.23;;;20.40;88.90;;;;;;5047054;28;20025;-48
2022/08/26 06:21:31;;;;;;;21.13;18.83;;;20.40;88.80;;;;;;5048374;28;20435;-49
2022/08/26 06:26:50;;;;;;;22.55;18.90;;;20.50;88.70;;;;;;5060830;28;20035;-46
2022/08/26 06:29:16;;;;;;;22.10;19.88;;;20.60;88.60;;;;;;5067695;28;20091;-46
2022/08/26 06:31:41;;;;;;;24.60;20.77;;;20.60;88.50;;;;;;5061694;28;20021;-46
2022/08/26 06:34:07;;;;;;;22.65;18.55;;;20.60;88.30;;;;;;5053132;28;20055;-47
2022/08/26 06:36:34;;;;;;;22.08;19.17;;;20.70;88.10;;;;;;5038773;28;20036;-46
2022/08/26 06:39:04;;;;;;;19.95;17.80;;;20.70;88.10;;;;;;5049883;28;20032;-46
2022/08/26 06:41:30;;;;;;;23.88;18.27;;;20.80;88.10;;;;;;5037800;28;20103;-46
2022/08/26 06:43:57;;;;;;;20.85;18.67;;;20.90;87.90;;;;;;5046300;28;20028;-46
2022/08/26 06:46:23;;;;;;;23.08;20.73;;;20.90;87.90;;;;;;5063142;28;20020;-47
2022/08/26 06:48:49;;;;;;;21.75;19.45;;;20.90;87.50;;;;;;5054015;28;21230;-49
2022/08/26 06:51:16;;;;;;;20.05;17.42;;;21.00;87.60;;;;;;5052328;28;20035;-46
2022/08/26 06:53:45;;;;;;;18.65;16.73;;;21.00;87.60;;;;;;5046667;28;20035;-46
2022/08/26 06:56:15;;;;;;;24.47;19.30;;;21.10;87.50;;;;;;5054133;28;20369;-49
2022/08/26 06:58:41;;;;;;;20.65;18.52;;;21.20;87.40;;;;;;5063578;28;20286;-46
2022/08/26 07:01:38;;;;;;;18.75;16.55;;;21.20;87.10;;;;;;5033713;28;20125;-48
2022/08/26 07:04:06;;;;;;;26.40;19.27;;;21.30;87.10;;;;;;5046984;28;20531;-46
2022/08/26 07:06:37;;;;;;;24.15;21.15;;;21.30;86.70;;;;;;5038564;28;20108;-45
2022/08/26 07:09:07;;;;;;;21.55;18.98;;;21.40;86.40;;;;;;5062474;28;20020;-48
2022/08/26 07:11:34;;;;;;;25.08;20.25;;;21.40;86.10;;;;;;5037316;28;20024;-46
2022/08/26 07:14:00;;;;;;;25.70;21.17;;;21.50;85.90;;;;;;5060257;28;20017;-46
2022/08/26 07:16:26;;;;;;;21.23;18.98;;;21.50;85.60;;;;;;5060467;28;20021;-46
2022/08/26 07:18:52;;;;;;;24.80;20.45;;;21.60;85.50;;;;;;5034888;28;20022;-46
2022/08/26 07:21:19;;;;;;;22.08;18.27;;;21.60;85.40;;;;;;5047843;28;20314;-47
2022/08/26 07:23:48;;;;;;;22.98;20.58;;;21.70;85.40;;;;;;5052241;28;20052;-46
2022/08/26 07:26:18;;;;;;;25.45;20.25;;;21.80;85.10;;;;;;5062095;28;20401;-46
2022/08/26 07:28:46;;;;;;;23.70;18.88;;;21.90;85.00;;;;;;5060083;28;20074;-46
2022/08/26 07:31:13;;;;;;;19.63;17.17;;;21.90;84.40;;;;;;5042925;28;20595;-49
2022/08/26 07:33:43;;;;;;;21.63;19.45;;;22.00;85.10;;;;;;5060540;28;20044;-47
2022/08/26 07:36:10;;;;;;;21.90;16.95;;;22.10;83.30;;;;;;5060452;28;20048;-49
2022/08/26 07:38:38;;;;;;;20.55;16.48;;;22.20;82.90;;;;;;5045670;28;20042;-47
2022/08/26 07:41:04;;;;;;;20.55;17.35;;;22.30;83.00;;;;;;5051647;28;20044;-46
2022/08/26 07:43:30;;;;;;;23.77;17.38;;;22.40;82.90;;;;;;5064158;28;20039;-47
2022/08/26 07:45:56;;;;;;;22.10;17.23;;;22.60;81.50;;;;;;5067588;28;20024;-48
2022/08/26 07:48:22;;;;;;;21.63;16.38;;;22.90;81.00;;;;;;5067829;28;20068;-46
2022/08/26 07:50:52;;;;;;;17.60;15.65;;;23.10;80.80;;;;;;5068657;28;20056;-46
2022/08/26 07:53:20;;;;;;;21.23;15.48;;;23.40;79.10;;;;;;5053855;28;20028;-46
2022/08/26 07:55:46;;;;;;;18.25;16.33;;;23.70;78.20;;;;;;5052145;28;20029;-47
2022/08/26 07:58:12;;;;;;;17.92;14.20;;;23.90;76.80;;;;;;5041864;28;20078;-47
2022/08/26 08:00:37;;;;;;;18.67;16.60;;;24.20;77.80;;;;;;5048590;28;20598;-46
2022/08/26 08:03:04;;;;;;;17.42;15.73;;;24.60;75.20;;;;;;5050314;28;20175;-47
2022/08/26 08:05:31;;;;;;;19.00;15.70;;;24.80;73.70;;;;;;5051300;28;20056;-48
2022/08/26 08:08:03;;;;;;;18.55;15.77;;;25.10;73.40;;;;;;5032288;28;20040;-46
2022/08/26 08:10:30;;;;;;;15.80;13.40;;;25.40;72.80;;;;;;5052183;28;20633;-47
2022/08/26 08:12:57;;;;;;;18.73;15.63;;;25.80;72.80;;;;;;5032754;28;20033;-47
2022/08/26 08:15:26;;;;;;;17.02;14.05;;;26.20;71.90;;;;;;5054477;28;20700;-47
2022/08/26 08:17:52;;;;;;;;;;;26.50;70.90;;;;;;5053663;28;20373;-50
2022/08/26 08:20:22;;;;;;;17.15;15.32;;;26.60;67.90;;;;;;5060537;28;19915;-47
2022/08/26 08:22:48;;;;;;;14.73;13.15;;;26.60;67.90;;;;;;5060308;28;20031;-46
2022/08/26 08:25:14;;;;;;;19.67;15.45;;;26.90;68.10;;;;;;5040385;28;20044;-47
2022/08/26 08:27:43;;;;;;;15.20;13.75;;;27.10;67.30;;;;;;5066447;28;20020;-49
2022/08/26 08:30:10;;;;;;;14.48;11.95;;;27.20;67.50;;;;;;5058105;28;20123;-48
2022/08/26 08:32:37;;;;;;;19.00;16.95;;;27.40;68.50;;;;;;5046218;28;20055;-48
2022/08/26 08:35:04;;;;;;;16.40;14.70;;;27.40;65.50;;;;;;5050411;28;20021;-49
2022/08/26 08:37:30;;;;;;;18.15;16.40;;;27.40;66.70;;;;;;5050293;28;20020;-47
2022/08/26 08:39:55;;;;;;;17.90;15.65;;;27.10;67.70;;;;;;5050122;28;20537;-47
2022/08/26 08:42:39;;;;;;;16.85;14.00;;;27.10;66.70;;;;;;5043293;28;20827;-46
2022/08/26 08:45:14;;;;;;;17.27;15.27;;;27.10;68.10;;;;;;5052886;28;20056;-47
2022/08/26 08:47:53;;;;;;;20.98;14.45;;;27.10;69.00;;;;;;5064109;28;20051;-49
2022/08/26 08:50:21;;;;;;;18.55;15.73;;;26.90;68.10;;;;;;5054092;28;20471;-46
2022/08/26 08:52:57;;;;;;;15.88;14.38;;;27.00;68.60;;;;;;5064677;28;20085;-48
2022/08/26 08:55:28;;;;;;;16.48;14.77;;;27.30;68.10;;;;;;5059495;28;20086;-46
2022/08/26 08:57:57;;;;;;;19.80;16.08;;;27.40;67.90;;;;;;5065806;28;20043;-47
2022/08/26 09:00:23;;;;;;;18.27;14.15;;;27.40;67.00;;;;;;5068443;28;20358;-46
2022/08/26 09:03:02;;;;;;;21.08;17.77;;;27.60;68.10;;;;;;5067658;28;20037;-48
2022/08/26 09:05:30;;;;;;;21.35;17.17;;;27.80;66.70;;;;;;5064651;28;20026;-47
2022/08/26 09:08:18;;;;;;;17.67;15.87;;;27.40;67.90;;;;;;5049090;28;20521;-50
2022/08/26 09:10:55;;;;;;;17.65;15.57;;;26.90;69.90;;;;;;5051147;28;20519;-47
2022/08/26 09:13:22;;;;;;;19.95;17.40;;;27.10;68.80;;;;;;5045996;28;20032;-46
2022/08/26 09:15:56;;;;;;;20.05;18.02;;;27.20;68.40;;;;;;5056114;28;20094;-47
2022/08/26 09:18:21;;;;;;;23.15;17.63;;;27.20;67.70;;;;;;5029787;28;20029;-46
2022/08/26 09:20:56;;;;;;;19.95;17.83;;;27.20;68.20;;;;;;5055604;28;20343;-48
2022/08/26 09:23:22;;;;;;;19.65;17.60;;;26.90;70.00;;;;;;5049063;28;20029;-47
2022/08/26 09:25:56;;;;;;;18.55;16.67;;;26.80;70.30;;;;;;5034334;28;20024;-48
2022/08/26 09:28:26;;;;;;;23.85;16.02;;;26.80;71.00;;;;;;5068003;28;20160;-48
2022/08/26 09:31:18;;;;;;;21.15;17.95;;;27.10;71.20;;;;;;5065535;28;20053;-47
2022/08/26 09:33:43;;;;;;;21.20;16.80;;;27.20;69.40;;;;;;5035525;28;20024;-47
2022/08/26 09:36:31;;;;;;;20.60;17.50;;;27.20;69.30;;;;;;5067926;28;20331;-47
2022/08/26 09:38:57;;;;;;;19.45;16.40;;;27.10;69.50;;;;;;5051454;28;20028;-47
2022/08/26 09:41:35;;;;;;;22.73;18.25;;;26.60;70.40;;;;;;5031636;28;20025;-47
2022/08/26 09:44:18;;;;;;;18.73;15.65;;;26.30;71.10;;;;;;5048998;28;20017;-47
2022/08/26 09:46:51;;;;;;;20.63;18.45;;;26.10;71.30;;;;;;5053737;28;20037;-46
2022/08/26 09:49:40;;;;;;;19.67;17.75;;;25.70;72.50;;;;;;5048550;28;20040;-47
2022/08/26 09:52:22;;;;;;;27.30;18.52;;;25.50;73.20;;;;;;5051129;28;20396;-47
2022/08/26 09:55:11;;;;;;;25.23;20.02;;;25.60;73.90;;;;;;5068238;28;20079;-47
2022/08/26 09:57:49;;;;;;;23.73;21.20;;;26.10;73.40;;;;;;5048861;28;20029;-46
2022/08/26 10:00:35;;;;;;;25.83;21.70;;;26.20;72.90;;;;;;5059040;28;20350;-47
2022/08/26 10:03:05;;;;;;;30.13;23.83;;;25.30;75.40;;;;;;5036676;28;20372;-47
2022/08/26 10:05:46;;;;;;;28.75;24.15;;;25.20;76.50;;;;;;5040745;28;20583;-50
2022/08/26 10:08:39;;;;;;;30.55;23.75;;;25.10;76.50;;;;;;5057782;28;20115;-47
2022/08/26 10:11:15;;;;;;;32.17;22.77;;;24.80;77.90;;;;;;5036401;28;20501;-48
2022/08/26 10:13:49;;;;;;;29.92;25.65;;;24.50;78.80;;;;;;5031242;28;20025;-50
2022/08/26 10:16:24;;;;;;;28.17;23.13;;;24.50;78.40;;;;;;5057190;28;20036;-48
2022/08/26 10:19:10;;;;;;;31.15;24.35;;;24.30;79.00;;;;;;5055457;28;20028;-47
2022/08/26 10:22:02;;;;;;;36.33;25.35;;;24.10;79.30;;;;;;5048297;28;20136;-46
2022/08/26 10:24:42;;;;;;;30.52;24.38;;;23.70;80.60;;;;;;5050523;28;20083;-47
2022/08/26 10:27:18;;;;;;;29.67;23.85;;;23.90;80.20;;;;;;5062145;28;20021;-47
2022/08/26 10:29:50;;;;;;;25.85;23.13;;;24.00;80.50;;;;;;5051058;28;20078;-47
2022/08/26 10:32:37;;;;;;;26.23;23.30;;;24.00;79.80;;;;;;5047895;28;20048;-47
2022/08/26 10:35:08;;;;;;;26.85;21.20;;;24.00;80.00;;;;;;5034131;28;20334;-47
2022/08/26 10:37:48;;;;;;;35.05;22.30;;;23.90;80.10;;;;;;5044341;28;20044;-46
2022/08/26 10:40:24;;;;;;;33.42;21.55;;;23.70;80.80;;;;;;5060601;28;20033;-50
2022/08/26 10:43:12;;;;;;;35.08;21.58;;;23.50;81.00;;;;;;5050329;28;20036;-47
2022/08/26 10:45:46;;;;;;;37.78;23.10;;;23.40;81.30;;;;;;5047952;28;20039;-48
2022/08/26 10:48:24;;;;;;;31.30;21.45;;;23.40;81.80;;;;;;5047628;28;20044;-47
2022/08/26 10:50:51;;;;;;;36.65;22.70;;;23.20;82.30;;;;;;5047953;28;20412;-46
2022/08/26 10:53:39;;;;;;;31.58;22.42;;;23.20;82.70;;;;;;5043044;28;20457;-46
2022/08/26 10:56:32;;;;;;;32.38;20.50;;;23.40;82.90;;;;;;5065111;28;20044;-47
2022/08/26 10:59:21;;;;;;;30.35;21.20;;;23.70;81.60;;;;;;5053406;28;20039;-47
2022/08/26 11:01:57;;;;;;;34.43;24.30;;;23.80;80.60;;;;;;5085117;28;20028;-48
2022/08/26 11:04:34;;;;;;;26.98;22.45;;;23.50;80.80;;;;;;5045283;28;20024;-48
2022/08/26 11:07:35;;;;;;;29.02;21.52;;;23.30;81.90;;;;;;5053180;28;20110;-47
2022/08/26 11:10:15;;;;;;;32.05;20.98;;;23.00;82.60;;;;;;5054982;28;20082;-47
2022/08/26 11:12:41;;;;;;;33.67;21.25;;;22.70;83.50;;;;;;5077709;28;20043;-47
2022/08/26 11:15:18;;;;;;;40.40;23.02;;;22.60;84.40;;;;;;5070122;28;20036;-48
2022/08/26 11:17:44;;;;;;;38.63;24.10;;;22.40;84.40;;;;;;5056489;28;20036;-47
2022/08/26 11:20:22;;;;;;;44.85;22.75;;;22.20;85.10;;;;;;5059463;28;20029;-47
2022/08/26 11:22:53;;;;;;;29.88;21.17;;;22.10;85.70;;;;;;5044169;28;20021;-47
2022/08/26 11:25:19;;;;;;;31.70;20.92;;;22.20;85.80;;;;;;5061144;28;20342;-47
2022/08/26 11:27:51;;;;;;;34.30;21.42;;;22.20;85.50;;;;;;5065401;28;20103;-46
2022/08/26 11:30:16;;;;;;;28.98;19.60;;;22.10;85.20;;;;;;5066937;28;20032;-46
2022/08/26 11:32:42;;;;;;;31.88;19.33;;;22.00;85.70;;;;;;5056201;28;20021;-46
2022/08/26 11:35:27;;;;;;;27.35;16.27;;;22.00;85.80;;;;;;5034548;28;20341;-46
2022/08/26 11:37:57;;;;;;;27.85;17.20;;;22.10;86.10;;;;;;5052085;28;20037;-46
2022/08/26 11:40:25;;;;;;;27.15;17.85;;;22.20;85.80;;;;;;5035442;28;20025;-46
2022/08/26 11:42:58;;;;;;;31.02;17.35;;;22.30;85.50;;;;;;5052357;28;20450;-46
2022/08/26 11:45:30;;;;;;;28.50;19.48;;;22.30;85.00;;;;;;5051013;28;20029;-47
2022/08/26 11:47:56;;;;;;;35.22;17.88;;;22.30;85.00;;;;;;5059529;28;20072;-46
2022/08/26 11:50:27;;;;;;;38.03;18.95;;;22.30;85.20;;;;;;5051999;28;20480;-46
2022/08/26 11:53:00;;;;;;;35.85;18.55;;;22.30;85.10;;;;;;5039919;28;20055;-48
2022/08/26 11:55:37;;;;;;;37.28;19.65;;;22.20;85.30;;;;;;5066235;28;20044;-50
2022/08/26 11:58:05;;;;;;;32.30;18.85;;;22.10;85.40;;;;;;5062309;28;20037;-48
2022/08/26 12:00:48;;;;;;;23.85;16.50;;;22.00;85.50;;;;;;5052608;28;20025;-47
2022/08/26 12:03:18;;;;;;;28.35;17.00;;;22.00;85.70;;;;;;5028698;28;20036;-46
2022/08/26 12:05:51;;;;;;;29.80;15.05;;;22.20;85.20;;;;;;5061635;28;20089;-47
2022/08/26 12:08:24;;;;;;;22.08;15.13;;;22.30;84.80;;;;;;5062909;28;20017;-47
2022/08/26 12:11:05;;;;;;;29.55;14.25;;;22.30;84.70;;;;;;5067452;28;20024;-51
2022/08/26 12:13:32;;;;;;;24.17;13.70;;;22.40;85.10;;;;;;5058492;28;20453;-47
2022/08/26 12:15:59;;;;;;;26.80;14.88;;;22.40;84.40;;;;;;5039069;28;21010;-48
2022/08/26 12:18:29;;;;;;;23.85;13.55;;;22.40;84.50;;;;;;5058269;28;20029;-47
2022/08/26 12:21:11;;;;;;;23.77;14.45;;;22.40;84.90;;;;;;5055406;28;20028;-47
2022/08/26 12:23:41;;;;;;;21.92;13.30;;;22.40;84.80;;;;;;5057457;28;20029;-46
2022/08/26 12:26:13;;;;;;;21.67;11.25;;;22.40;84.00;;;;;;5035632;28;20082;-48
2022/08/26 12:29:04;;;;;;;18.23;10.57;;;22.40;84.00;;;;;;5052598;28;20028;-47
2022/08/26 12:31:34;;;;;;;17.65;10.45;;;22.50;84.70;;;;;;5051123;28;20100;-46
2022/08/26 12:34:03;;;;;;;24.63;12.18;;;22.50;83.90;;;;;;5051859;28;20029;-47
2022/08/26 12:36:30;;;;;;;22.95;13.00;;;22.40;83.60;;;;;;5049369;28;20043;-49
2022/08/26 12:39:05;;;;;;;21.90;11.00;;;22.50;84.30;;;;;;5053415;28;20047;-48
2022/08/26 12:41:45;;;;;;;19.63;10.57;;;22.50;83.70;;;;;;5054108;28;20032;-50
2022/08/26 12:44:31;;;;;;;21.25;11.48;;;22.60;83.80;;;;;;5051102;28;20036;-47
2022/08/26 12:47:26;;;;;;;28.65;11.13;;;22.60;84.00;;;;;;5052239;28;20049;-47
2022/08/26 12:50:18;;;;;;;20.42;10.82;;;22.80;83.90;;;;;;5045542;28;20033;-48